Saint Stephen, SC (29479)

12:53 AM EST on February 11, 2016 (GMT -0500)
Macedonia | | Change Station
CLOSE
Current Station
Personal Weather Station
Location: Bonneau, SC
Elevation: 46 ft
Nearby Weather Stations
Active Advisory: Flood Warning

Elev 46 ft 33.29 °N, 79.89 °W | Updated 2 seconds ago

Clear
Clear
34.2 °F
Feels Like 34 °F
N
0.0
Wind Variable Wind from ESE
Gusts 0.0 mph

Today
High -- | Low -- °F
--% Chance of Precip.
Yesterday
High -- | Low -- °F
Precip. -- in
Pressure 30.16 in
Visibility 7.0 miles
Clouds Clear
Windchill 34 °F
Dew Point 13 °F
Humidity 41%
Rainfall 0.00 in
Snow Depth Not available.
7:07 AM 6:00 PM
Waxing Crescent, 9% visible
METAR KMKS 110535Z AUTO 00000KT 7SM CLR M02/M11 A3016 RMK AO2
Pressure 30.16 in
Visibility 7.0 miles
Clouds Clear
Windchill 34 °F
Dew Point 13 °F
Humidity 41%
Rainfall 0.00 in
Snow Depth Not available.
7:07 AM 6:00 PM
Waxing Crescent, 9% visible
METAR KMKS 110535Z AUTO 00000KT 7SM CLR M02/M11 A3016 RMK AO2

10-Day Weather Forecast

Almanac

Astronomy

Feb. 11, 2016 Rise Set
Actual Time
Civil Twilight
Nautical Twilight
Astronomical Twilight
Moon
Length of Visible Light
Length of Day
Tomorrow will be .
, % of the Moon is Illuminated

Today's Extremes

State Highs State Lows

Community

WunderPhotos

Upload Photos

1,892,023 photos uploaded!

WunderBlog® & News

Nearby

Air Quality

  Air Quality AQ Index Pollutant
Not available.

Snow Depth

Station Depth Elevation

Earthquake Activity

City Distance Mag. Time & Date
Minimum magnitude displayed is 2.5.

Coastal Water Temperatures

Place Temperature

Stations

Nearby Weather Stations

Station Location Temp. Windchill Dew Point Humidity Wind Precip. Elev Updated Type
                   

Watches & Warnings

Flood Warning
Issued: 8:18 PM EST Feb. 10, 2016 – National Weather Service

The Flood Warning continues for
the Santee river near Jamestown.
* At 7 PM Wednesday the stage was 13.8 feet.
* Flood stage is 10.0 feet.
* Minor flooding is occurring.
* Forecast, the river will remain nearly steady or slowly fall.
* At 12.0 feet, several dirt logging roads are impassable.


Lat... Lon 3347 8002 3354 7998 3325 7937 3321 7938
          3320 7951 3329 7976